Time;durP1;ratioP1;P1;durP2;ratioP2;P2;SDS_P1;SDS_P2;PMS_P1;PMS_P2;Temp;Humidity;BMP_temperature;BMP_pressure;BME280_temperature;BME280_humidity;BME280_pressure;Samples;Min_cycle;Max_cycle;Signal;HPM_P1;HPM_P2
2023/07/02 00:00:19;;;;;;;;;;;;;;;23.58;61.23;98603.88;4499781;31;34798;-76
2023/07/02 00:02:52;;;;;;;;;;;;;;;23.53;61.25;98614.03;4499036;31;35630;-75
2023/07/02 00:05:20;;;;;;;;;;;;;;;23.69;60.69;98611.75;4494295;31;33788;-74
2023/07/02 00:07:52;;;;;;;;;;;;;;;23.53;60.83;98614.84;4499457;31;34191;-76
2023/07/02 00:10:25;;;;;;;;;;;;;;;23.52;61.10;98612.34;4489675;31;33820;-76
2023/07/02 00:13:02;;;;;;;;;;;;;;;23.58;61.17;98609.19;4497473;31;34231;-74
2023/07/02 00:15:31;;;;;;;;;;;;;;;23.32;61.84;98606.91;4496113;31;33702;-77
2023/07/02 00:18:02;;;;;;;;;;;;;;;23.31;61.59;98602.56;4496633;31;34008;-75
2023/07/02 00:20:37;;;;;;;;;;;;;;;23.46;61.10;98605.75;4496117;31;32684;-74
2023/07/02 00:23:08;;;;;;;;;;;;;;;23.35;61.00;98613.75;4499744;31;33850;-74
2023/07/02 00:25:41;;;;;;;;;;;;;;;23.51;60.56;98608.00;4500468;31;32810;-76
2023/07/02 00:28:10;;;;;;;;;;;;;;;23.25;61.71;98597.81;4494945;31;34242;-75
2023/07/02 00:30:39;;;;;;;;;;;;;;;23.53;60.37;98604.25;4495844;31;34661;-75
2023/07/02 00:33:09;;;;;;;;;;;;;;;23.34;60.83;98607.63;4494190;31;34253;-77
2023/07/02 00:35:39;;;;;;;;;;;;;;;23.36;60.74;98607.50;4499587;31;33328;-75
2023/07/02 00:38:07;;;;;;;;;;;;;;;23.43;60.48;98606.00;4494767;31;34053;-77
2023/07/02 00:40:40;;;;;;;;;;;;;;;23.25;60.96;98605.75;4492446;31;35379;-74
2023/07/02 00:43:12;;;;;;;;;;;;;;;23.10;61.42;98602.56;4496659;31;34252;-75
2023/07/02 00:45:42;;;;;;;;;;;;;;;23.28;60.94;98604.66;4499848;31;34674;-73
2023/07/02 00:48:12;;;;;;;;;;;;;;;23.17;61.33;98602.88;4499940;31;34159;-77
2023/07/02 00:50:48;;;;;;;;;;;;;;;23.33;60.67;98605.94;4496177;31;33668;-76
2023/07/02 00:53:17;;;;;;;;;;;;;;;23.35;60.63;98606.66;4503295;31;33828;-77
2023/07/02 00:55:46;;;;;;;;;;;;;;;23.21;61.34;98607.78;4500985;31;33445;-77
2023/07/02 00:58:16;;;;;;;;;;;;;;;23.48;59.90;98603.81;4499224;31;34768;-77
2023/07/02 01:00:45;;;;;;;;;;;;;;;23.13;61.05;98604.13;4507242;31;33420;-75
2023/07/02 01:03:17;;;;;;;;;;;;;;;23.23;60.45;98609.50;4500006;31;33844;-76
2023/07/02 01:05:47;;;;;;;;;;;;;;;23.24;60.07;98604.06;4505298;31;33683;-77
2023/07/02 01:08:17;;;;;;;;;;;;;;;23.13;60.53;98607.59;4494255;31;33483;-75
2023/07/02 01:10:47;;;;;;;;;;;;;;;23.32;60.08;98606.09;4501434;31;34599;-74
2023/07/02 01:13:20;;;;;;;;;;;;;;;23.24;60.08;98603.22;4484054;31;32374;-74
2023/07/02 01:15:52;;;;;;;;;;;;;;;23.17;60.37;98611.69;4501368;31;33314;-77
2023/07/02 01:18:21;;;;;;;;;;;;;;;23.07;60.38;98604.59;4486889;31;33278;-74
2023/07/02 01:20:54;;;;;;;;;;;;;;;23.24;59.73;98604.06;4497183;31;34742;-75
2023/07/02 01:23:22;;;;;;;;;;;;;;;23.10;59.62;98605.22;4497939;31;33118;-76
2023/07/02 01:25:53;;;;;;;;;;;;;;;23.13;59.44;98612.88;4493824;31;33395;-76
2023/07/02 01:28:23;;;;;;;;;;;;;;;23.32;59.15;98603.44;4493767;31;34463;-77
2023/07/02 01:30:53;;;;;;;;;;;;;;;23.11;59.55;98604.22;4499368;31;34408;-76
2023/07/02 01:33:23;;;;;;;;;;;;;;;23.10;59.51;98607.00;4501012;31;33916;-76
2023/07/02 01:36:03;;;;;;;;;;;;;;;22.96;59.75;98601.00;4502028;31;33658;-75
2023/07/02 01:38:32;;;;;;;;;;;;;;;22.58;60.93;98599.66;4493495;31;33484;-74
2023/07/02 01:41:06;;;;;;;;;;;;;;;22.95;59.39;98607.28;4493518;31;32372;-74
2023/07/02 01:43:34;;;;;;;;;;;;;;;22.89;59.49;98609.56;4496372;31;34085;-74
2023/07/02 01:46:07;;;;;;;;;;;;;;;22.79;59.61;98604.19;4505174;31;33143;-74
2023/07/02 01:48:38;;;;;;;;;;;;;;;22.79;59.89;98604.19;4496601;31;33517;-74
2023/07/02 01:51:11;;;;;;;;;;;;;;;22.89;59.28;98610.41;4495908;31;34176;-75
2023/07/02 01:53:46;;;;;;;;;;;;;;;22.73;59.88;98605.50;4504391;31;34718;-75
2023/07/02 01:56:15;;;;;;;;;;;;;;;22.84;59.78;98615.22;4511421;31;33117;-74
2023/07/02 01:58:47;;;;;;;;;;;;;;;22.87;59.54;98606.22;4505237;31;33503;-73
2023/07/02 02:01:16;;;;;;;;;;;;;;;22.52;60.53;98607.22;4495004;31;33911;-73
2023/07/02 02:03:45;;;;;;;;;;;;;;;22.66;60.03;98609.59;4498368;31;33980;-77
2023/07/02 02:06:21;;;;;;;;;;;;;;;22.69;60.32;98606.75;4494967;31;33836;-76
2023/07/02 02:08:55;;;;;;;;;;;;;;;22.47;60.57;98604.97;4499690;31;33484;-74
2023/07/02 02:11:23;;;;;;;;;;;;;;;22.56;60.89;98603.38;4500262;31;33810;-76
2023/07/02 02:13:53;;;;;;;;;;;;;;;22.55;60.29;98591.97;4502686;31;33882;-75
2023/07/02 02:16:22;;;;;;;;;;;;;;;22.46;60.48;98599.81;4501477;31;33312;-73
2023/07/02 02:18:51;;;;;;;;;;;;;;;22.34;60.75;98597.16;4504981;31;33980;-75
2023/07/02 02:21:22;;;;;;;;;;;;;;;22.14;61.31;98598.72;4506915;31;33817;-77
2023/07/02 02:23:54;;;;;;;;;;;;;;;22.05;61.44;98595.94;4494892;31;34379;-73
2023/07/02 02:26:24;;;;;;;;;;;;;;;22.16;60.88;98595.97;4497719;31;34196;-75
2023/07/02 02:28:53;;;;;;;;;;;;;;;22.11;60.58;98592.84;4502192;31;34064;-75
2023/07/02 02:31:22;;;;;;;;;;;;;;;22.06;60.71;98587.06;4509270;31;33748;-76
2023/07/02 02:33:52;;;;;;;;;;;;;;;22.43;59.57;98586.84;4504321;31;33843;-74
2023/07/02 02:36:23;;;;;;;;;;;;;;;22.43;58.63;98587.69;4506423;31;32964;-74
2023/07/02 02:38:55;;;;;;;;;;;;;;;22.47;58.54;98578.56;4499628;31;34228;-73
2023/07/02 02:41:25;;;;;;;;;;;;;;;22.46;58.27;98586.59;4496904;31;33891;-74
2023/07/02 02:43:54;;;;;;;;;;;;;;;22.31;58.58;98584.19;4502861;31;34045;-74
2023/07/02 02:46:28;;;;;;;;;;;;;;;22.17;59.04;98589.69;4500115;31;33665;-74
2023/07/02 02:49:00;;;;;;;;;;;;;;;22.14;59.09;98587.31;4494153;31;34196;-76
2023/07/02 02:51:30;;;;;;;;;;;;;;;22.07;59.71;98591.37;4494716;31;34682;-74
2023/07/02 02:53:59;;;;;;;;;;;;;;;22.24;59.02;98592.75;4498871;31;34580;-74
2023/07/02 02:56:28;;;;;;;;;;;;;;;22.01;59.41;98581.28;4502889;31;33482;-75
2023/07/02 02:58:58;;;;;;;;;;;;;;;22.21;59.02;98590.34;4493611;31;34045;-75
2023/07/02 03:01:31;;;;;;;;;;;;;;;22.15;58.65;98587.16;4494667;31;34312;-74
2023/07/02 03:04:05;;;;;;;;;;;;;;;21.88;59.28;98582.25;4500499;31;33173;-74
2023/07/02 03:06:35;;;;;;;;;;;;;;;22.33;58.24;98586.72;4505696;31;33740;-75
2023/07/02 03:09:04;;;;;;;;;;;;;;;22.29;58.40;98591.41;4494659;31;33537;-77
2023/07/02 03:11:33;;;;;;;;;;;;;;;22.44;57.54;98591.16;4499856;31;34963;-74
2023/07/02 03:14:04;;;;;;;;;;;;;;;22.48;57.62;98589.97;4506265;31;33722;-73
2023/07/02 03:16:34;;;;;;;;;;;;;;;22.26;57.96;98590.81;4496770;31;33443;-74
2023/07/02 03:19:14;;;;;;;;;;;;;;;22.41;57.33;98594.03;4499392;31;34120;-76
2023/07/02 03:21:51;;;;;;;;;;;;;;;22.55;57.04;98589.34;4495849;31;34066;-76
2023/07/02 03:24:20;;;;;;;;;;;;;;;22.14;57.99;98598.72;4508134;31;33713;-75
2023/07/02 03:26:50;;;;;;;;;;;;;;;21.88;59.09;98590.16;4495127;31;33056;-73
2023/07/02 03:29:20;;;;;;;;;;;;;;;22.13;57.50;98589.13;4499902;31;33290;-75
2023/07/02 03:31:57;;;;;;;;;;;;;;;22.00;57.69;98593.66;4499687;31;33805;-72
2023/07/02 03:34:25;;;;;;;;;;;;;;;22.08;57.72;98600.97;4499863;31;33977;-74
2023/07/02 03:36:55;;;;;;;;;;;;;;;22.03;57.98;98598.69;4493664;31;33449;-74
2023/07/02 03:39:24;;;;;;;;;;;;;;;21.89;58.24;98597.16;4492491;31;33561;-73
2023/07/02 03:41:57;;;;;;;;;;;;;;;21.98;57.70;98597.38;4499896;31;34089;-74
2023/07/02 03:44:26;;;;;;;;;;;;;;;21.97;57.22;98598.34;4507023;31;34348;-74
2023/07/02 03:46:57;;;;;;;;;;;;;;;21.87;57.83;98606.97;4508094;31;32416;-74
2023/07/02 03:49:25;;;;;;;;;;;;;;;21.96;57.77;98600.13;4493300;31;33566;-74
2023/07/02 03:52:01;;;;;;;;;;;;;;;21.91;57.13;98604.94;4496572;31;33249;-74
2023/07/02 03:54:33;;;;;;;;;;;;;;;21.94;57.40;98602.06;4503823;31;33843;-74
2023/07/02 03:57:10;;;;;;;;;;;;;;;21.72;57.54;98606.37;4497705;31;34624;-73
2023/07/02 03:59:40;;;;;;;;;;;;;;;21.89;56.94;98614.75;4493197;31;34217;-74
2023/07/02 04:02:09;;;;;;;;;;;;;;;21.81;57.07;98607.44;4495460;31;33917;-77
2023/07/02 04:04:38;;;;;;;;;;;;;;;21.98;56.21;98608.78;4499021;31;34683;-74
2023/07/02 04:07:14;;;;;;;;;;;;;;;22.03;56.14;98609.25;4502432;31;33392;-73
2023/07/02 04:09:47;;;;;;;;;;;;;;;22.15;55.98;98610.94;4495247;31;33944;-75
2023/07/02 04:12:16;;;;;;;;;;;;;;;22.11;55.90;98619.25;4494029;31;35258;-74
2023/07/02 04:14:47;;;;;;;;;;;;;;;22.01;56.18;98620.91;4507763;31;33786;-76
2023/07/02 04:17:15;;;;;;;;;;;;;;;21.90;56.48;98621.75;4503839;31;33299;-76
2023/07/02 04:19:44;;;;;;;;;;;;;;;22.16;55.67;98620.56;4503380;31;33489;-74
2023/07/02 04:22:14;;;;;;;;;;;;;;;22.21;55.36;98624.69;4497317;31;35312;-75
2023/07/02 04:24:45;;;;;;;;;;;;;;;21.97;55.73;98628.25;4503503;31;33511;-75
2023/07/02 04:27:18;;;;;;;;;;;;;;;21.97;55.92;98632.69;4493592;31;32492;-76
2023/07/02 04:30:08;;;;;;;;;;;;;;;21.93;56.02;98639.97;4498375;31;34158;-76
2023/07/02 04:32:41;;;;;;;;;;;;;;;22.05;55.69;98641.69;4493111;31;33901;-74
2023/07/02 04:35:12;;;;;;;;;;;;;;;22.24;55.44;98640.28;4495595;31;31889;-74
2023/07/02 04:37:42;;;;;;;;;;;;;;;22.03;56.02;98638.31;4494951;31;34090;-76
2023/07/02 04:42:48;;;;;;;;;;;;;;;22.51;54.65;98642.56;4498430;31;34326;-76
2023/07/02 04:45:19;;;;;;;;;;;;;;;22.24;54.30;98641.12;4496099;31;33662;-75
2023/07/02 04:47:48;;;;;;;;;;;;;;;22.45;54.36;98643.91;4492964;31;32638;-75
2023/07/02 04:50:20;;;;;;;;;;;;;;;22.53;53.97;98646.75;4494354;31;34308;-73
2023/07/02 04:52:48;;;;;;;;;;;;;;;22.69;53.63;98656.97;4503759;31;34227;-76
2023/07/02 04:55:18;;;;;;;;;;;;;;;22.74;53.53;98662.72;4501303;31;34165;-75
2023/07/02 04:57:51;;;;;;;;;;;;;;;22.90;52.50;98654.38;4493343;31;33414;-75
2023/07/02 05:00:23;;;;;;;;;;;;;;;22.86;53.02;98666.19;4500292;31;36267;-75
2023/07/02 05:02:55;;;;;;;;;;;;;;;22.90;52.43;98659.69;4507088;31;34669;-74
2023/07/02 05:05:30;;;;;;;;;;;;;;;22.91;52.82;98666.66;4513911;31;34080;-74
2023/07/02 05:08:01;;;;;;;;;;;;;;;22.96;52.96;98663.66;4479222;31;32323;-76
2023/07/02 05:10:30;;;;;;;;;;;;;;;22.84;53.29;98664.66;4503471;31;34346;-74
2023/07/02 05:13:00;;;;;;;;;;;;;;;22.92;52.95;98667.50;4495515;31;34403;-73
2023/07/02 05:15:34;;;;;;;;;;;;;;;22.97;53.12;98674.09;4497527;31;34429;-76
2023/07/02 05:18:10;;;;;;;;;;;;;;;22.80;53.79;98666.69;4513498;31;33636;-73
2023/07/02 05:20:39;;;;;;;;;;;;;;;22.56;54.58;98662.38;4505960;31;34254;-74
2023/07/02 05:23:08;;;;;;;;;;;;;;;22.94;54.01;98660.28;4499102;31;33553;-74
2023/07/02 05:25:37;;;;;;;;;;;;;;;22.80;54.55;98669.31;4495987;31;34491;-75
2023/07/02 05:28:12;;;;;;;;;;;;;;;22.74;53.83;98669.81;4498217;31;32891;-74
2023/07/02 05:30:40;;;;;;;;;;;;;;;22.78;54.13;98668.59;4492387;31;33818;-73
2023/07/02 05:33:14;;;;;;;;;;;;;;;22.84;54.30;98668.13;4494267;31;33444;-74
2023/07/02 05:35:42;;;;;;;;;;;;;;;22.84;54.64;98668.13;4491924;31;34653;-74
2023/07/02 05:38:12;;;;;;;;;;;;;;;22.73;54.19;98678.72;4492658;31;33174;-74
2023/07/02 05:40:41;;;;;;;;;;;;;;;22.74;54.78;98670.66;4497644;31;33956;-75
2023/07/02 05:43:19;;;;;;;;;;;;;;;22.82;54.49;98671.84;4504289;31;33631;-75
2023/07/02 05:45:49;;;;;;;;;;;;;;;22.88;54.73;98674.84;4491894;31;34021;-74
2023/07/02 05:48:18;;;;;;;;;;;;;;;22.85;54.64;98679.53;4493084;31;33168;-75
2023/07/02 05:50:46;;;;;;;;;;;;;;;22.71;54.81;98675.34;4497872;31;34206;-76
2023/07/02 05:53:16;;;;;;;;;;;;;;;22.92;54.90;98678.91;4497530;31;34023;-75
2023/07/02 05:55:45;;;;;;;;;;;;;;;22.93;54.65;98683.25;4502266;31;34364;-74
2023/07/02 05:58:15;;;;;;;;;;;;;;;22.88;54.15;98674.00;4493182;31;33172;-75
2023/07/02 06:00:49;;;;;;;;;;;;;;;22.85;54.40;98683.00;4492267;31;33583;-75
2023/07/02 06:03:24;;;;;;;;;;;;;;;22.98;54.07;98689.03;4497705;31;33994;-75
2023/07/02 06:05:53;;;;;;;;;;;;;;;22.98;53.87;98691.69;4495841;31;33676;-76
2023/07/02 06:08:24;;;;;;;;;;;;;;;22.94;53.20;98692.03;4495767;31;33274;-76
2023/07/02 06:10:53;;;;;;;;;;;;;;;23.06;53.33;98692.88;4492683;31;33756;-76
2023/07/02 06:13:24;;;;;;;;;;;;;;;23.24;52.48;98693.19;4501415;31;34879;-75
2023/07/02 06:15:54;;;;;;;;;;;;;;;23.03;52.68;98693.09;4504783;31;33382;-73
2023/07/02 06:18:28;;;;;;;;;;;;;;;23.31;52.30;98702.31;4495927;31;32328;-74
2023/07/02 06:20:56;;;;;;;;;;;;;;;23.45;52.61;98699.38;4504759;31;33473;-74
2023/07/02 06:23:28;;;;;;;;;;;;;;;23.70;51.44;98705.28;4495234;31;36411;-74
2023/07/02 06:25:58;;;;;;;;;;;;;;;23.68;52.32;98712.50;4500282;31;33319;-74
2023/07/02 06:28:28;;;;;;;;;;;;;;;23.79;51.30;98705.37;4494434;31;33478;-75
2023/07/02 06:30:58;;;;;;;;;;;;;;;23.94;51.25;98713.00;4494475;31;33074;-75
2023/07/02 06:33:26;;;;;;;;;;;;;;;24.06;50.29;98715.47;4499700;31;33749;-75
2023/07/02 06:35:56;;;;;;;;;;;;;;;24.06;50.40;98711.97;4497351;31;34838;-74
2023/07/02 06:38:25;;;;;;;;;;;;;;;23.97;50.48;98713.63;4499149;31;33545;-76
2023/07/02 06:41:01;;;;;;;;;;;;;;;23.97;50.48;98721.56;4497090;31;33662;-74
2023/07/02 06:43:30;;;;;;;;;;;;;;;23.97;51.32;98718.91;4496578;31;34318;-74
2023/07/02 06:46:00;;;;;;;;;;;;;;;23.78;51.27;98719.59;4494031;31;33820;-74
2023/07/02 06:48:35;;;;;;;;;;;;;;;24.10;50.78;98721.34;4499344;31;35235;-76
2023/07/02 06:51:07;;;;;;;;;;;;;;;24.61;50.14;98728.50;4500392;31;34149;-74
2023/07/02 06:53:38;;;;;;;;;;;;;;;24.55;49.94;98725.53;4499943;31;36195;-75
2023/07/02 06:56:08;;;;;;;;;;;;;;;24.59;49.91;98729.59;4497556;31;34305;-76
2023/07/02 06:58:45;;;;;;;;;;;;;;;24.80;49.98;98733.03;4502244;31;33229;-74
2023/07/02 07:01:23;;;;;;;;;;;;;;;24.96;49.98;98735.19;4501408;31;34197;-75
2023/07/02 07:03:52;;;;;;;;;;;;;;;24.93;49.18;98735.44;4503239;31;34250;-74
2023/07/02 07:06:24;;;;;;;;;;;;;;;25.04;49.49;98735.34;4496600;31;33848;-74
2023/07/02 07:08:53;;;;;;;;;;;;;;;25.21;49.79;98741.03;4494472;31;33164;-74
2023/07/02 07:11:21;;;;;;;;;;;;;;;25.25;47.64;98740.62;4495264;31;33936;-73
2023/07/02 07:13:50;;;;;;;;;;;;;;;25.13;46.75;98749.63;4499404;31;34088;-74
2023/07/02 07:16:29;;;;;;;;;;;;;;;25.14;46.97;98748.66;4497287;31;34152;-74
2023/07/02 07:19:01;;;;;;;;;;;;;;;24.91;47.31;98743.56;4496634;31;32875;-74
2023/07/02 07:21:33;;;;;;;;;;;;;;;24.86;47.53;98745.78;4493057;31;34278;-74
2023/07/02 07:24:07;;;;;;;;;;;;;;;24.47;47.44;98750.06;4498467;31;33688;-77
2023/07/02 07:26:37;;;;;;;;;;;;;;;24.56;47.95;98751.91;4499822;31;34627;-75
2023/07/02 07:29:09;;;;;;;;;;;;;;;24.90;47.08;98749.00;4497159;31;32765;-76
2023/07/02 07:31:39;;;;;;;;;;;;;;;24.79;47.70;98754.38;4494117;31;33993;-75
2023/07/02 07:34:11;;;;;;;;;;;;;;;25.21;46.80;98757.78;4506873;31;34052;-76
2023/07/02 07:36:40;;;;;;;;;;;;;;;25.18;47.50;98741.28;4498900;31;34249;-75
2023/07/02 07:39:12;;;;;;;;;;;;;;;25.79;46.20;98751.69;4496483;31;33560;-76
2023/07/02 07:41:41;;;;;;;;;;;;;;;26.02;45.18;98762.06;4494408;31;34233;-76
2023/07/02 07:44:11;;;;;;;;;;;;;;;26.21;44.72;98767.34;4498517;31;35082;-75
2023/07/02 07:46:42;;;;;;;;;;;;;;;26.07;44.50;98760.69;4495426;31;33915;-75
2023/07/02 07:49:11;;;;;;;;;;;;;;;26.34;44.76;98759.91;4499622;31;32623;-75
2023/07/02 07:51:41;;;;;;;;;;;;;;;26.57;43.37;98763.09;4496760;31;34652;-77
2023/07/02 07:54:13;;;;;;;;;;;;;;;26.84;43.27;98771.28;4497756;31;34310;-75
2023/07/02 07:56:45;;;;;;;;;;;;;;;26.91;42.70;98773.19;4492928;31;33509;-76
2023/07/02 07:59:14;;;;;;;;;;;;;;;26.94;43.99;98769.41;4501895;31;32914;-76
2023/07/02 08:01:46;;;;;;;;;;;;;;;26.94;43.39;98778.25;4496480;31;34027;-76
2023/07/02 08:04:15;;;;;;;;;;;;;;;26.90;44.07;98770.69;4497149;31;34861;-76
2023/07/02 08:06:44;;;;;;;;;;;;;;;27.12;43.68;98772.97;4494750;31;33695;-76
2023/07/02 08:09:20;;;;;;;;;;;;;;;27.15;43.85;98782.47;4498384;31;32831;-75
2023/07/02 08:11:49;;;;;;;;;;;;;;;26.95;43.52;98793.22;4497960;31;34148;-77
2023/07/02 08:14:19;;;;;;;;;;;;;;;26.57;44.18;98786.19;4493432;31;34127;-76
2023/07/02 08:16:51;;;;;;;;;;;;;;;26.50;44.77;98793.03;4496099;31;33669;-76
2023/07/02 08:19:22;;;;;;;;;;;;;;;26.53;43.98;98798.06;4497644;31;32517;-75
2023/07/02 08:21:54;;;;;;;;;;;;;;;26.43;42.99;98803.41;4498003;31;35803;-76
2023/07/02 08:24:24;;;;;;;;;;;;;;;26.16;42.54;98806.81;4501460;31;35726;-75
2023/07/02 08:26:52;;;;;;;;;;;;;;;26.34;42.15;98804.28;4497486;31;34020;-75
2023/07/02 08:29:21;;;;;;;;;;;;;;;26.08;43.06;98812.00;4503638;31;33909;-75
2023/07/02 08:31:54;;;;;;;;;;;;;;;25.71;43.86;98810.00;4494013;31;34637;-74
2023/07/02 08:34:23;;;;;;;;;;;;;;;25.55;44.30;98814.03;4499862;31;34293;-75
2023/07/02 08:36:54;;;;;;;;;;;;;;;25.25;44.80;98814.06;4494896;31;33241;-75
2023/07/02 08:39:26;;;;;;;;;;;;;;;25.66;43.64;98812.22;4497056;31;33415;-76
2023/07/02 08:41:55;;;;;;;;;;;;;;;25.61;44.29;98817.09;4500744;31;33360;-76
2023/07/02 08:44:24;;;;;;;;;;;;;;;26.10;43.64;98808.22;4498821;31;34298;-75
2023/07/02 08:47:01;;;;;;;;;;;;;;;26.20;43.02;98804.72;4507130;31;34089;-75
2023/07/02 08:49:30;;;;;;;;;;;;;;;26.23;43.56;98815.91;4493977;31;32528;-76
2023/07/02 08:52:00;;;;;;;;;;;;;;;26.20;42.96;98810.88;4496962;31;33778;-77
2023/07/02 08:54:30;;;;;;;;;;;;;;;26.32;44.26;98814.22;4494246;31;34809;-77
2023/07/02 08:57:01;;;;;;;;;;;;;;;26.48;42.84;98811.84;4498460;31;34625;-74
2023/07/02 08:59:30;;;;;;;;;;;;;;;26.61;43.33;98806.22;4498473;31;33257;-74
2023/07/02 09:02:01;;;;;;;;;;;;;;;26.73;41.95;98815.72;4494080;31;34785;-77
2023/07/02 09:04:30;;;;;;;;;;;;;;;26.61;42.75;98806.22;4494796;31;34232;-76
2023/07/02 09:07:05;;;;;;;;;;;;;;;26.71;42.81;98811.50;4490203;31;34468;-74
2023/07/02 09:09:45;;;;;;;;;;;;;;;27.07;42.27;98811.66;4496603;31;33004;-75
2023/07/02 09:12:24;;;;;;;;;;;;;;;27.07;41.81;98817.81;4490189;31;33959;-74
2023/07/02 09:14:58;;;;;;;;;;;;;;;26.63;43.09;98804.25;4496375;31;34370;-76
2023/07/02 09:17:31;;;;;;;;;;;;;;;27.06;42.79;98808.16;4494341;31;34148;-78
2023/07/02 09:20:04;;;;;;;;;;;;;;;27.05;42.69;98805.66;4491557;31;33678;-76
2023/07/02 09:22:33;;;;;;;;;;;;;;;27.42;41.01;98801.16;4495335;31;32677;-75
2023/07/02 09:25:05;;;;;;;;;;;;;;;27.39;41.47;98816.56;4494285;31;33712;-77
2023/07/02 09:27:36;;;;;;;;;;;;;;;27.47;41.30;98808.66;4490049;31;33358;-76
2023/07/02 09:30:09;;;;;;;;;;;;;;;27.64;41.29;98810.53;4490680;31;32889;-76
2023/07/02 09:32:40;;;;;;;;;;;;;;;27.73;42.46;98805.28;4496047;31;33821;-75
2023/07/02 09:35:15;;;;;;;;;;;;;;;27.79;40.45;98802.84;4495084;31;33517;-76
2023/07/02 09:37:49;;;;;;;;;;;;;;;27.55;41.56;98807.94;4491849;31;34199;-74
2023/07/02 09:40:18;;;;;;;;;;;;;;;27.79;40.57;98810.03;4490825;31;33208;-74
2023/07/02 09:42:52;;;;;;;;;;;;;;;28.25;40.99;98811.63;4491486;31;33804;-77
2023/07/02 09:45:20;;;;;;;;;;;;;;;28.29;39.93;98814.81;4499932;31;34270;-76
2023/07/02 09:47:54;;;;;;;;;;;;;;;28.01;40.73;98814.09;4494140;31;34077;-75
2023/07/02 09:50:23;;;;;;;;;;;;;;;28.36;40.15;98815.84;4495282;31;32518;-75
2023/07/02 09:52:52;;;;;;;;;;;;;;;28.33;39.27;98813.50;4497919;31;34953;-75
2023/07/02 09:55:22;;;;;;;;;;;;;;;28.23;39.83;98810.94;4494660;31;33737;-73
2023/07/02 09:57:51;;;;;;;;;;;;;;;28.52;38.67;98815.19;4503267;31;34744;-76
2023/07/02 10:00:22;;;;;;;;;;;;;;;28.53;38.16;98816.84;4501324;31;33795;-74
2023/07/02 10:03:00;;;;;;;;;;;;;;;28.43;38.51;98816.06;4495258;31;34746;-76
2023/07/02 10:05:30;;;;;;;;;;;;;;;28.56;39.39;98808.56;4497275;31;33961;-75
2023/07/02 10:08:16;;;;;;;;;;;;;;;28.29;38.55;98825.47;4494651;31;33752;-77
2023/07/02 10:10:52;;;;;;;;;;;;;;;28.32;39.52;98819.84;4500003;31;33267;-76
2023/07/02 10:13:27;;;;;;;;;;;;;;;27.77;39.90;98820.81;4501832;31;34302;-75
2023/07/02 10:16:01;;;;;;;;;;;;;;;27.72;39.13;98819.63;4495895;31;34067;-78
2023/07/02 10:18:31;;;;;;;;;;;;;;;27.70;39.62;98824.25;4495494;31;34082;-77
2023/07/02 10:21:02;;;;;;;;;;;;;;;27.91;40.17;98816.84;4495500;31;32977;-76
2023/07/02 10:23:34;;;;;;;;;;;;;;;27.95;39.67;98817.34;4498207;31;34074;-76
2023/07/02 10:26:14;;;;;;;;;;;;;;;27.89;39.38;98808.16;4494834;31;34025;-76
2023/07/02 10:28:49;;;;;;;;;;;;;;;28.30;40.91;98820.00;4494319;31;33705;-76
2023/07/02 10:31:18;;;;;;;;;;;;;;;28.28;39.43;98813.13;4494577;31;32894;-75
2023/07/02 10:33:51;;;;;;;;;;;;;;;28.38;39.20;98807.72;4497580;31;33879;-76
2023/07/02 10:36:21;;;;;;;;;;;;;;;28.40;39.19;98811.06;4498105;31;33645;-75
2023/07/02 10:38:52;;;;;;;;;;;;;;;28.43;39.19;98805.41;4492809;31;33578;-76
2023/07/02 10:41:25;;;;;;;;;;;;;;;28.38;39.51;98800.53;4493692;31;33792;-76
2023/07/02 10:43:54;;;;;;;;;;;;;;;28.79;39.20;98800.00;4493006;31;33149;-78
2023/07/02 10:46:23;;;;;;;;;;;;;;;29.06;38.31;98796.28;4498975;31;33944;-76
2023/07/02 10:48:57;;;;;;;;;;;;;;;29.20;37.63;98808.25;4493179;31;34863;-76
2023/07/02 10:51:28;;;;;;;;;;;;;;;29.12;37.98;98807.22;4492896;31;33337;-75
2023/07/02 10:54:00;;;;;;;;;;;;;;;29.33;37.74;98803.25;4495897;31;33959;-77
2023/07/02 10:56:29;;;;;;;;;;;;;;;29.37;37.33;98793.94;4495076;31;34230;-76
2023/07/02 10:59:03;;;;;;;;;;;;;;;29.38;37.29;98816.12;4500137;31;34130;-75
2023/07/02 11:01:32;;;;;;;;;;;;;;;29.14;37.23;98804.37;4494504;31;34483;-75
2023/07/02 11:04:03;;;;;;;;;;;;;;;29.60;36.43;98801.34;4495233;31;33193;-78
2023/07/02 11:06:37;;;;;;;;;;;;;;;29.54;36.38;98805.50;4496591;31;34355;-76
2023/07/02 11:09:23;;;;;;;;;;;;;;;29.28;37.23;98806.41;4499205;31;34882;-76
2023/07/02 11:11:55;;;;;;;;;;;;;;;28.82;37.63;98800.50;4499712;31;33536;-76
2023/07/02 11:14:27;;;;;;;;;;;;;;;29.35;36.34;98796.75;4494418;31;34596;-77
2023/07/02 11:16:58;;;;;;;;;;;;;;;29.34;36.64;98794.25;4494934;31;34953;-75
2023/07/02 11:19:33;;;;;;;;;;;;;;;28.99;36.20;98790.75;4491814;31;34135;-78
2023/07/02 11:22:05;;;;;;;;;;;;;;;29.00;36.66;98789.75;4495869;31;32516;-77
2023/07/02 11:24:34;;;;;;;;;;;;;;;28.92;35.86;98793.25;4500062;31;33823;-77
2023/07/02 11:27:08;;;;;;;;;;;;;;;29.06;36.03;98791.81;4494638;31;35113;-77
2023/07/02 11:29:38;;;;;;;;;;;;;;;29.22;36.24;98799.06;4494470;31;34044;-76
2023/07/02 11:32:12;;;;;;;;;;;;;;;29.15;35.71;98790.03;4495998;31;33538;-75
2023/07/02 11:34:41;;;;;;;;;;;;;;;29.17;36.41;98790.69;4498542;31;34850;-75
2023/07/02 11:37:14;;;;;;;;;;;;;;;29.22;36.58;98798.22;4494695;31;34014;-76
2023/07/02 11:39:44;;;;;;;;;;;;;;;29.52;36.55;98788.78;4494364;31;36109;-78
2023/07/02 11:42:13;;;;;;;;;;;;;;;29.47;36.67;98788.44;4493123;31;33227;-77
2023/07/02 11:44:42;;;;;;;;;;;;;;;29.58;36.22;98790.81;4498938;31;34936;-76
2023/07/02 11:47:11;;;;;;;;;;;;;;;29.64;35.56;98792.81;4500012;31;34274;-75
2023/07/02 11:49:42;;;;;;;;;;;;;;;29.82;35.67;98783.84;4497097;31;34412;-76
2023/07/02 11:52:15;;;;;;;;;;;;;;;29.65;36.18;98794.50;4492835;31;33246;-76
2023/07/02 11:55:04;;;;;;;;;;;;;;;29.63;35.68;98796.50;4496473;31;34113;-78
2023/07/02 11:57:33;;;;;;;;;;;;;;;29.47;36.06;98785.78;4493585;31;33534;-75
2023/07/02 12:00:09;;;;;;;;;;;;;;;29.80;35.19;98789.37;4499562;31;34780;-76
2023/07/02 12:02:39;;;;;;;;;;;;;;;29.67;35.67;98789.00;4494598;31;32741;-77
2023/07/02 12:05:13;;;;;;;;;;;;;;;29.65;36.65;98791.84;4495842;31;34341;-76
2023/07/02 12:07:45;;;;;;;;;;;;;;;29.60;37.42;98793.31;4494584;31;35112;-76
2023/07/02 12:10:16;;;;;;;;;;;;;;;29.89;37.11;98799.09;4499695;31;32543;-76
2023/07/02 12:12:47;;;;;;;;;;;;;;;30.11;34.98;98786.06;4499351;31;33341;-76
2023/07/02 12:15:17;;;;;;;;;;;;;;;30.26;34.32;98788.94;4495587;31;34702;-75
2023/07/02 12:17:50;;;;;;;;;;;;;;;30.29;34.60;98780.56;4495813;31;34376;-76
2023/07/02 12:20:19;;;;;;;;;;;;;;;30.87;33.29;98779.44;4493392;31;34106;-75
2023/07/02 12:22:49;;;;;;;;;;;;;;;31.15;33.05;98789.75;4499465;31;33305;-77
2023/07/02 12:25:19;;;;;;;;;;;;;;;30.65;32.98;98783.66;4497179;31;32713;-79
2023/07/02 12:27:51;;;;;;;;;;;;;;;30.13;33.94;98792.06;4494954;31;33620;-76
2023/07/02 12:30:20;;;;;;;;;;;;;;;29.99;34.72;98796.25;4492773;31;34420;-76
2023/07/02 12:32:52;;;;;;;;;;;;;;;30.00;34.71;98773.84;4499887;31;33033;-76
2023/07/02 12:35:21;;;;;;;;;;;;;;;30.04;34.74;98774.37;4499176;31;33561;-75
2023/07/02 12:37:53;;;;;;;;;;;;;;;30.04;34.65;98780.53;4459680;31;1133502;-79
2023/07/02 12:40:23;;;;;;;;;;;;;;;30.24;33.49;98788.22;4493574;31;33970;-76
2023/07/02 12:42:54;;;;;;;;;;;;;;;30.10;33.71;98784.38;4499557;31;32418;-75
2023/07/02 12:45:23;;;;;;;;;;;;;;;30.32;34.13;98777.53;4497144;31;33854;-74
2023/07/02 12:47:52;;;;;;;;;;;;;;;30.08;34.07;98787.22;4498060;31;33934;-75
2023/07/02 12:50:22;;;;;;;;;;;;;;;30.04;34.17;98783.22;4499501;31;34172;-75
2023/07/02 12:52:57;;;;;;;;;;;;;;;29.96;33.92;98792.06;4497724;31;33830;-75
2023/07/02 12:55:28;;;;;;;;;;;;;;;30.12;34.30;98779.69;4496421;31;33334;-76
2023/07/02 12:58:00;;;;;;;;;;;;;;;30.07;34.79;98774.84;4501088;31;34591;-78
2023/07/02 13:00:30;;;;;;;;;;;;;;;30.17;34.71;98788.06;4494615;31;33932;-75
2023/07/02 13:03:01;;;;;;;;;;;;;;;30.34;34.48;98778.22;4492264;31;34289;-76
2023/07/02 13:05:34;;;;;;;;;;;;;;;30.74;33.95;98777.28;4493655;31;33556;-76
2023/07/02 13:08:06;;;;;;;;;;;;;;;31.06;32.83;98788.09;4497107;31;34137;-78
2023/07/02 13:10:39;;;;;;;;;;;;;;;31.05;33.01;98771.19;4496020;31;32910;-75